Time;durP1;ratioP1;P1;durP2;ratioP2;P2;SDS_P1;SDS_P2;PMS_P1;PMS_P2;Temp;Humidity;BMP_temperature;BMP_pressure;BME280_temperature;BME280_humidity;BME280_pressure;Samples;Min_cycle;Max_cycle;Signal;HPM_P1;HPM_P2
2023/12/31 00:02:04;;;;;;;5.33;4.93;;;22.20;56.70;;;;;;4929142;29;20468;-83
2023/12/31 00:04:32;;;;;;;5.20;4.70;;;22.10;56.70;;;;;;4931589;29;20468;-83
2023/12/31 00:07:00;;;;;;;5.67;5.17;;;22.20;56.80;;;;;;4917020;29;20486;-85
2023/12/31 00:09:28;;;;;;;5.57;5.17;;;22.10;56.80;;;;;;4933329;29;20550;-83
2023/12/31 00:11:57;;;;;;;6.50;6.00;;;22.10;56.80;;;;;;4915049;29;20456;-84
2023/12/31 00:14:25;;;;;;;6.63;6.03;;;22.10;56.80;;;;;;4931912;29;20542;-83
2023/12/31 00:16:53;;;;;;;5.50;5.00;;;22.10;56.80;;;;;;4932830;29;20446;-84
2023/12/31 00:19:23;;;;;;;6.00;5.50;;;22.10;56.80;;;;;;4932625;29;20982;-85
2023/12/31 00:21:51;;;;;;;6.80;6.20;;;22.10;56.90;;;;;;4929639;29;20474;-84
2023/12/31 00:24:19;;;;;;;5.17;4.73;;;22.10;56.90;;;;;;4925835;29;20931;-83
2023/12/31 00:26:47;;;;;;;5.57;5.17;;;22.10;56.90;;;;;;4928762;29;20467;-85
2023/12/31 00:29:15;;;;;;;5.80;5.30;;;22.10;56.90;;;;;;4927030;29;20868;-84
2023/12/31 00:31:44;;;;;;;5.67;5.17;;;22.10;56.90;;;;;;4933351;29;21011;-84
2023/12/31 00:34:13;;;;;;;6.00;5.50;;;22.00;56.90;;;;;;4915399;29;20597;-83
2023/12/31 00:36:42;;;;;;;6.53;5.93;;;22.00;57.00;;;;;;4908217;29;20489;-84
2023/12/31 00:39:10;;;;;;;5.67;4.97;;;22.00;57.00;;;;;;4926882;29;21062;-83
2023/12/31 00:41:39;;;;;;;5.87;5.30;;;22.00;57.00;;;;;;4933595;29;20542;-84
2023/12/31 00:44:07;;;;;;;7.33;6.63;;;22.00;57.00;;;;;;4912838;29;20470;-84
2023/12/31 00:46:35;;;;;;;5.97;5.50;;;22.00;57.00;;;;;;4921216;29;20475;-83
2023/12/31 00:49:04;;;;;;;5.60;5.20;;;22.00;57.00;;;;;;4927700;29;20554;-83
2023/12/31 00:51:32;;;;;;;6.50;6.00;;;22.00;57.00;;;;;;4934189;29;20561;-87
2023/12/31 00:54:02;;;;;;;5.47;4.77;;;22.00;57.10;;;;;;4934646;29;20459;-84
2023/12/31 00:56:30;;;;;;;5.20;4.80;;;22.00;57.10;;;;;;4932170;29;20469;-84
2023/12/31 00:59:01;;;;;;;5.40;5.00;;;22.00;57.10;;;;;;4923427;29;20492;-84
2023/12/31 01:01:29;;;;;;;6.50;6.00;;;21.90;57.20;;;;;;4939367;29;20526;-83
2023/12/31 01:03:58;;;;;;;6.43;5.80;;;21.90;57.20;;;;;;4927425;29;20466;-88
2023/12/31 01:06:26;;;;;;;7.70;6.50;;;21.90;57.20;;;;;;4916230;29;20506;-84
2023/12/31 01:08:56;;;;;;;5.93;5.43;;;21.90;57.20;;;;;;4916809;29;20463;-84
2023/12/31 01:11:27;;;;;;;6.07;5.57;;;21.90;57.30;;;;;;4928469;29;20480;-84
2023/12/31 01:13:55;;;;;;;6.30;5.80;;;21.90;57.30;;;;;;4913985;29;20904;-83
2023/12/31 01:16:24;;;;;;;6.30;5.80;;;21.90;57.30;;;;;;4937976;29;20842;-84
2023/12/31 01:18:52;;;;;;;5.43;4.93;;;21.90;57.30;;;;;;4943540;29;21055;-83
2023/12/31 01:21:23;;;;;;;6.30;5.80;;;21.80;57.30;;;;;;4918948;29;20468;-84
2023/12/31 01:23:51;;;;;;;5.63;4.87;;;21.80;57.30;;;;;;4914428;29;20579;-83
2023/12/31 01:26:19;;;;;;;5.07;4.67;;;21.80;57.40;;;;;;4933805;29;20469;-83
2023/12/31 01:28:48;;;;;;;5.87;5.30;;;21.80;57.40;;;;;;4928622;29;20466;-83
2023/12/31 01:31:20;;;;;;;5.10;4.67;;;21.80;57.40;;;;;;4933099;29;20443;-83
2023/12/31 01:33:51;;;;;;;5.90;5.40;;;21.80;57.40;;;;;;4916982;29;20463;-83
2023/12/31 01:36:20;;;;;;;5.57;5.13;;;21.80;57.40;;;;;;4933658;29;20429;-83
2023/12/31 01:38:48;;;;;;;5.33;4.83;;;21.80;57.40;;;;;;4913288;29;20560;-83
2023/12/31 01:41:16;;;;;;;4.90;4.50;;;21.80;57.40;;;;;;4912036;29;20458;-83
2023/12/31 01:43:45;;;;;;;6.13;5.63;;;21.80;57.50;;;;;;4927947;29;20490;-83
2023/12/31 01:46:27;;;;;;;5.23;4.83;;;21.70;57.40;;;;;;4929490;29;21011;-83
2023/12/31 01:48:56;;;;;;;5.97;5.47;;;21.70;57.50;;;;;;4938796;29;20509;-83
2023/12/31 01:51:26;;;;;;;5.53;5.13;;;21.70;57.50;;;;;;4929100;29;20467;-83
2023/12/31 01:53:58;;;;;;;5.17;4.67;;;21.70;57.50;;;;;;4932178;29;20460;-84
2023/12/31 01:56:26;;;;;;;6.03;5.43;;;21.70;57.50;;;;;;4933320;29;20459;-85
2023/12/31 01:58:56;;;;;;;5.27;4.87;;;21.70;57.50;;;;;;4921679;29;20500;-83
2023/12/31 02:01:27;;;;;;;5.70;5.20;;;21.70;57.50;;;;;;4926528;29;20459;-85
2023/12/31 02:03:55;;;;;;;5.87;5.37;;;21.70;57.50;;;;;;4911927;29;20494;-83
2023/12/31 02:06:23;;;;;;;5.87;5.37;;;21.70;57.50;;;;;;4928640;29;20478;-83
2023/12/31 02:08:52;;;;;;;5.10;4.80;;;21.70;57.60;;;;;;4925816;29;20458;-83
2023/12/31 02:11:21;;;;;;;6.00;5.40;;;21.70;57.60;;;;;;4909421;29;20498;-84
2023/12/31 02:13:49;;;;;;;5.33;4.80;;;21.70;57.60;;;;;;4926845;29;20467;-83
2023/12/31 02:16:19;;;;;;;5.47;4.90;;;21.70;57.70;;;;;;4929048;29;20497;-83
2023/12/31 02:18:51;;;;;;;5.83;5.33;;;21.60;57.70;;;;;;4916931;29;21278;-83
2023/12/31 02:21:21;;;;;;;5.37;4.97;;;21.60;57.70;;;;;;4936502;29;20462;-83
2023/12/31 02:23:50;;;;;;;5.23;4.83;;;21.60;57.70;;;;;;4930748;29;20832;-83
2023/12/31 02:26:20;;;;;;;6.50;5.20;;;21.60;57.70;;;;;;4934291;29;20452;-83
2023/12/31 02:28:48;;;;;;;6.03;5.53;;;21.60;57.70;;;;;;4930953;29;20481;-83
2023/12/31 02:31:18;;;;;;;5.63;5.13;;;21.60;57.70;;;;;;4930785;29;20576;-87
2023/12/31 02:33:47;;;;;;;5.70;5.13;;;21.60;57.70;;;;;;4936013;29;20975;-83
2023/12/31 02:36:15;;;;;;;5.90;5.40;;;21.60;57.70;;;;;;4910489;29;20503;-83
2023/12/31 02:38:43;;;;;;;5.60;5.10;;;21.60;57.70;;;;;;4934224;29;20473;-83
2023/12/31 02:41:11;;;;;;;5.07;4.67;;;21.60;57.70;;;;;;4935376;29;20489;-84
2023/12/31 02:43:42;;;;;;;5.20;4.80;;;21.60;57.70;;;;;;4936959;29;20904;-84
2023/12/31 02:46:10;;;;;;;5.37;4.87;;;21.60;57.70;;;;;;4932847;29;20468;-85
2023/12/31 02:48:38;;;;;;;5.50;5.10;;;21.50;57.70;;;;;;4923428;29;20954;-83
2023/12/31 02:51:08;;;;;;;5.87;5.47;;;21.50;57.70;;;;;;4918885;29;20526;-85
2023/12/31 02:53:36;;;;;;;5.43;5.03;;;21.50;57.70;;;;;;4918737;29;21029;-85
2023/12/31 02:56:05;;;;;;;5.93;5.13;;;21.50;57.70;;;;;;4935199;29;20462;-86
2023/12/31 02:58:34;;;;;;;6.00;5.50;;;21.50;57.70;;;;;;4934883;29;20522;-83
2023/12/31 03:01:03;;;;;;;5.03;4.73;;;21.50;57.70;;;;;;4933689;29;20477;-83
2023/12/31 03:03:32;;;;;;;4.90;4.60;;;21.50;57.70;;;;;;4916942;29;20891;-83
2023/12/31 03:06:00;;;;;;;5.87;5.27;;;21.50;57.70;;;;;;4924737;29;20923;-86
2023/12/31 03:08:28;;;;;;;5.00;4.70;;;21.50;57.70;;;;;;4934345;29;20471;-83
2023/12/31 03:10:56;;;;;;;5.27;4.87;;;21.50;57.70;;;;;;4918700;29;20455;-84
2023/12/31 03:13:25;;;;;;;5.50;5.00;;;21.50;57.70;;;;;;4935309;29;20474;-85
2023/12/31 03:15:53;;;;;;;5.80;4.77;;;21.50;57.70;;;;;;4928010;29;20543;-83
2023/12/31 03:18:23;;;;;;;6.07;5.60;;;21.50;57.70;;;;;;4933887;29;20978;-83
2023/12/31 03:20:52;;;;;;;5.83;5.33;;;21.50;57.70;;;;;;4917767;29;20494;-83
2023/12/31 03:23:20;;;;;;;4.83;4.43;;;21.50;57.70;;;;;;4920720;29;21069;-86
2023/12/31 03:25:48;;;;;;;6.17;5.67;;;21.50;57.70;;;;;;4936055;29;20878;-83
2023/12/31 03:28:16;;;;;;;4.77;4.37;;;21.50;57.70;;;;;;4933285;29;20467;-84
2023/12/31 03:30:45;;;;;;;4.93;4.50;;;21.50;57.70;;;;;;4931674;29;20473;-84
2023/12/31 03:33:13;;;;;;;5.33;4.93;;;21.50;57.70;;;;;;4934967;29;20453;-84
2023/12/31 03:35:43;;;;;;;5.53;5.13;;;21.40;57.70;;;;;;4918543;29;20450;-83
2023/12/31 03:38:11;;;;;;;5.50;5.00;;;21.40;57.70;;;;;;4935071;29;20442;-83
2023/12/31 03:40:40;;;;;;;5.50;5.10;;;21.40;57.70;;;;;;4935758;29;20472;-83
2023/12/31 03:43:09;;;;;;;5.60;5.13;;;21.40;57.70;;;;;;4950183;29;20462;-83
2023/12/31 03:45:37;;;;;;;4.50;4.20;;;21.40;57.70;;;;;;4931105;29;20824;-83
2023/12/31 03:48:06;;;;;;;6.20;5.70;;;21.40;57.70;;;;;;4920948;29;20531;-84
2023/12/31 03:50:35;;;;;;;5.63;5.23;;;21.40;57.70;;;;;;4931954;29;20510;-86
2023/12/31 03:53:05;;;;;;;5.40;5.00;;;21.40;57.70;;;;;;4925333;29;20458;-82
2023/12/31 03:55:34;;;;;;;5.33;4.90;;;21.40;57.70;;;;;;4926542;29;20523;-84
2023/12/31 03:58:02;;;;;;;5.83;5.43;;;21.40;57.70;;;;;;4941057;29;20453;-84
2023/12/31 04:00:31;;;;;;;5.83;5.33;;;21.30;57.80;;;;;;4913282;29;20529;-83
2023/12/31 04:02:59;;;;;;;5.20;4.80;;;21.30;57.80;;;;;;4935001;29;20466;-83
2023/12/31 04:05:28;;;;;;;5.33;4.83;;;21.30;57.80;;;;;;4931259;29;20468;-83
2023/12/31 04:07:56;;;;;;;5.43;5.03;;;21.30;57.80;;;;;;4925601;29;20561;-84
2023/12/31 04:10:26;;;;;;;5.90;5.40;;;21.30;57.80;;;;;;4918378;29;20469;-83
2023/12/31 04:12:54;;;;;;;5.60;5.10;;;21.30;57.80;;;;;;4915823;29;20525;-83
2023/12/31 04:15:22;;;;;;;5.30;4.77;;;21.30;57.80;;;;;;4934793;29;20449;-84
2023/12/31 04:17:50;;;;;;;5.07;4.67;;;21.30;57.80;;;;;;4934854;29;20460;-84
2023/12/31 04:20:19;;;;;;;5.00;4.50;;;21.30;57.80;;;;;;4917408;29;20503;-84
2023/12/31 04:22:48;;;;;;;5.33;4.93;;;21.30;57.80;;;;;;4928745;29;20482;-83
2023/12/31 04:25:16;;;;;;;5.77;5.27;;;21.30;57.80;;;;;;4919516;29;21089;-83
2023/12/31 04:27:46;;;;;;;5.33;4.93;;;21.20;57.80;;;;;;4918358;29;20487;-83
2023/12/31 04:30:14;;;;;;;5.43;5.03;;;21.20;57.80;;;;;;4936737;29;20468;-83
2023/12/31 04:32:43;;;;;;;5.30;4.80;;;21.20;57.80;;;;;;4930290;29;20468;-83
2023/12/31 04:35:11;;;;;;;5.03;4.63;;;21.20;57.80;;;;;;4934995;29;20442;-84
2023/12/31 04:37:41;;;;;;;4.97;4.57;;;21.20;57.80;;;;;;4941878;29;20499;-84
2023/12/31 04:40:10;;;;;;;5.63;5.23;;;21.20;57.80;;;;;;4940236;28;20578;-83
2023/12/31 04:42:38;;;;;;;5.37;4.97;;;21.20;57.80;;;;;;4942408;29;20461;-83
2023/12/31 04:45:09;;;;;;;5.60;5.10;;;21.20;57.80;;;;;;4934750;29;20425;-83
2023/12/31 04:47:38;;;;;;;5.07;4.73;;;21.20;57.80;;;;;;4933539;29;20468;-83
2023/12/31 04:50:07;;;;;;;5.30;4.87;;;21.20;57.80;;;;;;4932085;29;20804;-84
2023/12/31 04:52:35;;;;;;;5.47;5.07;;;21.20;57.80;;;;;;4916925;29;20461;-84
2023/12/31 04:55:04;;;;;;;5.10;4.70;;;21.20;57.90;;;;;;4931583;29;20986;-84
2023/12/31 04:57:32;;;;;;;4.77;4.33;;;21.20;57.80;;;;;;4925642;29;20469;-85
2023/12/31 05:00:02;;;;;;;5.30;4.80;;;21.20;57.90;;;;;;4917486;29;20473;-83
2023/12/31 05:02:31;;;;;;;5.40;5.00;;;21.20;57.90;;;;;;4933323;29;20528;-86
2023/12/31 05:05:01;;;;;;;5.20;4.80;;;21.20;57.90;;;;;;4930552;29;20465;-83
2023/12/31 05:07:29;;;;;;;5.30;4.80;;;21.20;57.90;;;;;;4920536;29;20433;-83
2023/12/31 05:09:58;;;;;;;5.10;4.70;;;21.20;57.90;;;;;;4927845;29;20467;-83
2023/12/31 05:12:26;;;;;;;5.57;5.10;;;21.20;57.90;;;;;;4928784;29;20481;-86
2023/12/31 05:14:54;;;;;;;5.20;4.80;;;21.20;57.90;;;;;;4910780;29;20541;-83
2023/12/31 05:17:22;;;;;;;5.33;4.93;;;21.30;57.80;;;;;;4933758;29;20874;-83
2023/12/31 05:19:52;;;;;;;5.90;5.40;;;21.30;57.80;;;;;;4924800;29;20462;-83
2023/12/31 05:22:20;;;;;;;4.43;4.13;;;21.30;57.70;;;;;;4931599;29;20480;-84
2023/12/31 05:24:49;;;;;;;5.70;5.30;;;21.40;57.60;;;;;;4921353;29;20491;-84
2023/12/31 05:27:17;;;;;;;5.70;5.20;;;21.40;57.60;;;;;;4929790;29;20522;-83
2023/12/31 05:29:46;;;;;;;5.53;5.13;;;21.40;57.50;;;;;;4929395;29;20842;-84
2023/12/31 05:32:14;;;;;;;5.50;5.10;;;21.40;57.40;;;;;;4930361;29;20476;-83
2023/12/31 05:34:42;;;;;;;5.87;5.37;;;21.50;57.40;;;;;;4927936;29;20460;-84
2023/12/31 05:37:12;;;;;;;6.03;5.53;;;21.50;57.30;;;;;;4934000;29;20477;-84
2023/12/31 05:39:40;;;;;;;6.27;5.37;;;21.50;57.30;;;;;;4924774;29;20532;-84
2023/12/31 05:42:08;;;;;;;5.60;5.10;;;21.60;57.20;;;;;;4929457;29;20491;-83
2023/12/31 05:44:37;;;;;;;5.87;5.40;;;21.60;57.20;;;;;;4932051;29;20471;-84
2023/12/31 05:47:05;;;;;;;6.27;5.77;;;21.60;57.20;;;;;;4933624;29;20471;-84
2023/12/31 05:49:35;;;;;;;5.87;5.37;;;21.60;57.10;;;;;;4934216;29;20429;-84
2023/12/31 05:52:06;;;;;;;4.93;4.53;;;21.70;57.00;;;;;;4928704;29;20470;-83
2023/12/31 05:54:39;;;;;;;5.83;5.23;;;21.70;57.00;;;;;;4925882;29;20867;-83
2023/12/31 05:57:08;;;;;;;5.97;5.47;;;21.70;56.90;;;;;;4925914;29;21064;-86
2023/12/31 05:59:36;;;;;;;4.97;4.57;;;21.80;56.80;;;;;;4935531;29;20497;-83
2023/12/31 06:02:04;;;;;;;5.50;4.93;;;21.80;56.80;;;;;;4928652;29;20482;-84
2023/12/31 06:04:32;;;;;;;5.47;5.07;;;21.80;56.70;;;;;;4933523;29;20462;-83
2023/12/31 06:07:01;;;;;;;5.70;5.30;;;21.90;56.60;;;;;;4936794;29;20443;-84
2023/12/31 06:09:29;;;;;;;6.07;5.57;;;21.90;56.60;;;;;;4937627;29;20958;-84
2023/12/31 06:11:59;;;;;;;5.80;5.30;;;21.90;56.50;;;;;;4923614;29;21186;-84
2023/12/31 06:14:27;;;;;;;6.40;5.90;;;21.90;56.40;;;;;;4936958;29;20455;-85
2023/12/31 06:16:55;;;;;;;6.30;5.70;;;21.90;56.40;;;;;;4931071;29;20471;-84
2023/12/31 06:19:23;;;;;;;5.73;5.23;;;21.90;56.40;;;;;;4932602;29;21030;-83
2023/12/31 06:21:51;;;;;;;5.53;5.03;;;21.90;56.30;;;;;;4926385;29;20482;-84
2023/12/31 06:24:19;;;;;;;4.90;4.50;;;21.90;56.30;;;;;;4930157;29;20502;-83
2023/12/31 06:26:48;;;;;;;4.93;4.53;;;21.90;56.30;;;;;;4932354;29;20557;-86
2023/12/31 06:29:17;;;;;;;5.80;5.20;;;21.80;56.40;;;;;;4937998;29;20459;-83
2023/12/31 06:31:47;;;;;;;5.27;4.87;;;21.80;56.40;;;;;;4936039;29;20467;-83
2023/12/31 06:34:15;;;;;;;6.00;5.50;;;21.80;56.40;;;;;;4931435;29;20461;-83
2023/12/31 06:36:43;;;;;;;5.83;5.33;;;21.80;56.40;;;;;;4933346;29;20553;-84
2023/12/31 06:39:11;;;;;;;5.63;5.23;;;21.80;56.50;;;;;;4934950;29;20518;-83
2023/12/31 06:41:40;;;;;;;5.23;4.93;;;21.80;56.50;;;;;;4935471;29;20836;-83
2023/12/31 06:44:08;;;;;;;5.30;4.90;;;21.70;56.50;;;;;;4936937;29;20921;-84
2023/12/31 06:46:38;;;;;;;5.83;5.33;;;21.70;56.60;;;;;;4942819;29;20466;-89
2023/12/31 06:49:06;;;;;;;5.60;5.20;;;21.70;56.60;;;;;;4931758;29;20545;-84
2023/12/31 06:51:34;;;;;;;5.50;5.00;;;21.70;56.60;;;;;;4927434;29;20459;-84
2023/12/31 06:54:03;;;;;;;6.60;6.00;;;21.70;56.60;;;;;;4931587;29;20529;-83
2023/12/31 06:56:31;;;;;;;5.23;4.83;;;21.70;56.60;;;;;;4913094;29;20466;-84
2023/12/31 06:58:59;;;;;;;5.47;5.00;;;21.70;56.60;;;;;;4933809;29;20474;-84
2023/12/31 07:01:28;;;;;;;4.80;4.50;;;21.80;56.60;;;;;;4942341;29;20463;-85
2023/12/31 07:03:58;;;;;;;5.90;5.40;;;21.70;56.60;;;;;;4934177;29;20470;-83
2023/12/31 07:06:26;;;;;;;5.50;5.10;;;21.80;56.50;;;;;;4933971;29;21184;-85
2023/12/31 07:08:54;;;;;;;5.53;5.13;;;21.80;56.50;;;;;;4915515;29;20452;-83
2023/12/31 07:11:23;;;;;;;5.50;5.10;;;21.80;56.50;;;;;;4929766;29;20445;-84
2023/12/31 07:13:51;;;;;;;5.17;4.87;;;21.80;56.50;;;;;;4936452;29;20557;-84
2023/12/31 07:16:19;;;;;;;5.37;4.97;;;21.80;56.50;;;;;;4936248;29;20968;-86
2023/12/31 07:18:48;;;;;;;5.57;5.10;;;21.80;56.40;;;;;;4915379;29;20443;-84
2023/12/31 07:21:23;;;;;;;5.00;4.67;;;21.80;56.40;;;;;;4922836;29;20832;-83
2023/12/31 07:23:52;;;;;;;6.10;5.60;;;21.80;56.40;;;;;;4916675;29;20510;-86
2023/12/31 07:26:26;;;;;;;5.17;4.77;;;21.80;56.40;;;;;;4953749;29;20897;-89
2023/12/31 07:28:56;;;;;;;5.93;5.33;;;21.80;56.40;;;;;;4939820;29;20450;-83
2023/12/31 07:31:38;;;;;;;5.60;5.10;;;21.80;56.40;;;;;;4931419;29;20463;-83
2023/12/31 07:34:07;;;;;;;5.40;5.00;;;21.80;56.40;;;;;;4935122;29;20452;-83
2023/12/31 07:36:37;;;;;;;5.40;5.00;;;21.80;56.30;;;;;;4936236;29;21009;-83
2023/12/31 07:39:06;;;;;;;5.63;5.23;;;21.80;56.30;;;;;;4936740;29;20543;-84
2023/12/31 07:41:34;;;;;;;5.67;5.10;;;21.80;56.30;;;;;;4935245;29;20447;-84
2023/12/31 07:44:03;;;;;;;5.20;4.80;;;21.80;56.30;;;;;;4928088;29;20485;-84
2023/12/31 07:46:31;;;;;;;4.97;4.57;;;21.80;56.30;;;;;;4934891;29;20471;-83
2023/12/31 07:48:59;;;;;;;5.30;4.83;;;21.80;56.20;;;;;;4928161;29;20833;-83
2023/12/31 07:51:28;;;;;;;4.67;4.37;;;21.80;56.20;;;;;;4923644;29;20868;-86
2023/12/31 07:53:57;;;;;;;5.03;4.60;;;21.80;56.20;;;;;;4929633;29;20468;-83
2023/12/31 07:56:25;;;;;;;5.03;4.63;;;21.80;56.20;;;;;;4929009;29;20502;-83
2023/12/31 07:58:55;;;;;;;4.93;4.53;;;21.80;56.20;;;;;;4915805;29;20466;-83
2023/12/31 08:01:23;;;;;;;5.10;4.70;;;21.80;56.20;;;;;;4919656;29;20551;-83
2023/12/31 08:03:52;;;;;;;5.40;4.93;;;21.80;56.20;;;;;;4934564;29;20516;-84
2023/12/31 08:06:20;;;;;;;5.30;4.80;;;21.80;56.20;;;;;;4934091;29;20457;-87
2023/12/31 08:08:49;;;;;;;4.70;4.33;;;21.80;56.20;;;;;;4934937;29;20438;-83
2023/12/31 08:11:20;;;;;;;5.23;4.83;;;21.80;56.20;;;;;;4922845;29;20478;-86
2023/12/31 08:13:49;;;;;;;5.10;4.70;;;21.80;56.20;;;;;;4924670;29;20552;-83
2023/12/31 08:16:19;;;;;;;6.30;5.70;;;21.70;56.20;;;;;;4930484;29;20980;-83
2023/12/31 08:18:47;;;;;;;5.17;4.70;;;21.70;56.30;;;;;;4934369;29;20466;-83
2023/12/31 08:21:15;;;;;;;4.80;4.40;;;21.70;56.30;;;;;;4929197;29;20461;-86
2023/12/31 08:23:44;;;;;;;5.10;4.70;;;21.70;56.30;;;;;;4933390;29;20506;-84
2023/12/31 08:26:15;;;;;;;5.07;4.67;;;21.70;56.30;;;;;;4919896;29;20482;-83
2023/12/31 08:28:45;;;;;;;4.33;4.03;;;21.70;56.30;;;;;;4930572;29;20565;-86
2023/12/31 08:31:14;;;;;;;5.07;4.77;;;21.70;56.30;;;;;;4932055;29;20467;-90
2023/12/31 08:33:43;;;;;;;4.70;4.30;;;21.70;56.30;;;;;;4928638;29;20467;-83
2023/12/31 08:36:11;;;;;;;4.97;4.67;;;21.70;56.30;;;;;;4929537;29;20460;-84
2023/12/31 08:38:39;;;;;;;5.70;5.20;;;21.80;56.30;;;;;;4928108;29;20476;-84
2023/12/31 08:41:07;;;;;;;4.70;4.40;;;21.80;56.30;;;;;;4935508;29;20467;-84
2023/12/31 08:43:36;;;;;;;4.47;4.17;;;21.80;56.20;;;;;;4930386;29;20502;-83
2023/12/31 08:46:07;;;;;;;4.40;4.10;;;21.80;56.20;;;;;;4933649;29;20810;-83
2023/12/31 08:48:36;;;;;;;4.50;4.20;;;21.80;56.20;;;;;;4934700;29;20466;-83
2023/12/31 08:51:04;;;;;;;5.00;4.60;;;21.80;56.20;;;;;;4932524;29;20468;-84
2023/12/31 08:53:33;;;;;;;4.57;4.27;;;21.80;56.20;;;;;;4914587;29;20475;-83
2023/12/31 08:56:01;;;;;;;4.90;4.60;;;21.80;56.10;;;;;;4933441;29;20472;-83
2023/12/31 08:58:30;;;;;;;4.80;4.40;;;21.90;56.10;;;;;;4930620;29;20468;-85
2023/12/31 09:00:58;;;;;;;4.47;4.17;;;21.90;56.10;;;;;;4932009;29;20581;-85
2023/12/31 09:03:28;;;;;;;4.70;4.40;;;21.90;56.10;;;;;;4927740;29;20487;-87
2023/12/31 09:05:56;;;;;;;5.03;4.63;;;21.90;56.10;;;;;;4926944;29;20491;-83
2023/12/31 09:08:24;;;;;;;5.20;4.73;;;21.90;56.10;;;;;;4937271;29;20466;-84
2023/12/31 09:10:54;;;;;;;5.37;5.03;;;21.90;56.10;;;;;;4932359;29;20467;-83
2023/12/31 09:13:23;;;;;;;4.70;4.30;;;21.90;56.00;;;;;;4930012;29;20470;-83
2023/12/31 09:15:51;;;;;;;4.90;4.50;;;21.90;56.00;;;;;;4930975;29;20471;-84
2023/12/31 09:18:19;;;;;;;6.33;4.43;;;21.90;56.00;;;;;;4927561;29;20470;-86
2023/12/31 09:20:49;;;;;;;4.70;4.30;;;21.90;56.00;;;;;;4927886;29;20467;-83
2023/12/31 09:23:17;;;;;;;4.53;4.23;;;21.90;56.00;;;;;;4930133;29;21049;-84
2023/12/31 09:25:46;;;;;;;4.20;3.90;;;21.90;56.00;;;;;;4935636;29;20454;-83
2023/12/31 09:28:14;;;;;;;4.97;4.57;;;21.90;56.00;;;;;;4929776;29;20492;-86
2023/12/31 09:30:43;;;;;;;3.83;3.57;;;21.90;56.00;;;;;;4928429;29;20458;-84
2023/12/31 09:33:11;;;;;;;4.70;4.30;;;21.90;56.00;;;;;;4931385;29;20557;-84
2023/12/31 09:35:39;;;;;;;5.40;5.00;;;21.90;56.00;;;;;;4935005;29;20473;-87
2023/12/31 09:38:09;;;;;;;4.70;4.30;;;21.90;56.10;;;;;;4935603;29;20470;-84
2023/12/31 09:40:37;;;;;;;4.73;4.43;;;21.80;56.10;;;;;;4928310;29;20957;-84
2023/12/31 09:43:09;;;;;;;4.87;4.57;;;21.80;56.10;;;;;;4923217;29;20454;-84
2023/12/31 09:45:38;;;;;;;4.20;3.90;;;21.80;56.10;;;;;;4948684;29;20450;-85
2023/12/31 09:48:08;;;;;;;4.93;4.57;;;21.80;56.10;;;;;;4937825;29;20461;-84
2023/12/31 09:50:36;;;;;;;4.53;4.13;;;21.80;56.10;;;;;;4929840;29;20459;-84
2023/12/31 09:53:06;;;;;;;5.23;4.83;;;21.80;56.00;;;;;;4932541;29;20466;-84
2023/12/31 09:55:37;;;;;;;4.37;3.97;;;21.80;56.10;;;;;;4930063;29;20470;-87
2023/12/31 09:58:07;;;;;;;4.70;4.30;;;21.80;56.10;;;;;;4934295;29;20490;-87
2023/12/31 10:00:35;;;;;;;4.60;4.30;;;21.80;56.10;;;;;;4935317;29;20490;-88
2023/12/31 10:03:04;;;;;;;4.03;3.73;;;21.80;56.10;;;;;;4935449;29;21042;-85
2023/12/31 10:05:36;;;;;;;5.70;5.20;;;21.80;56.10;;;;;;4931626;29;21012;-84
2023/12/31 10:08:08;;;;;;;4.90;4.50;;;21.90;56.00;;;;;;4933994;29;20491;-85
2023/12/31 10:10:40;;;;;;;4.70;4.33;;;21.90;56.00;;;;;;4931823;29;20498;-85
2023/12/31 10:13:14;;;;;;;4.53;4.13;;;21.90;55.90;;;;;;4932440;29;20472;-87
2023/12/31 10:15:43;;;;;;;6.73;4.50;;;21.90;55.90;;;;;;4932544;29;21277;-85
2023/12/31 10:18:12;;;;;;;4.40;4.10;;;22.00;55.90;;;;;;4932735;29;21367;-84
2023/12/31 10:20:40;;;;;;;4.87;4.40;;;22.00;55.80;;;;;;4928778;29;20563;-87
2023/12/31 10:23:09;;;;;;;5.10;4.70;;;22.00;55.80;;;;;;4931964;29;20482;-84
2023/12/31 10:25:38;;;;;;;6.67;4.77;;;22.00;55.70;;;;;;4925285;29;20858;-85
2023/12/31 10:28:07;;;;;;;4.50;4.20;;;22.00;55.70;;;;;;4930557;29;20495;-85
2023/12/31 10:30:38;;;;;;;4.03;3.77;;;22.10;55.70;;;;;;4929357;29;20498;-86
2023/12/31 10:33:13;;;;;;;4.10;3.80;;;22.10;55.60;;;;;;4931067;29;20500;-85
2023/12/31 10:35:43;;;;;;;4.10;3.83;;;22.10;55.60;;;;;;4928320;29;20558;-84
2023/12/31 10:38:11;;;;;;;3.93;3.70;;;22.10;55.50;;;;;;4936902;29;20544;-85
2023/12/31 10:40:43;;;;;;;4.47;4.17;;;22.10;55.50;;;;;;4945183;29;20501;-85
2023/12/31 10:43:16;;;;;;;4.97;4.57;;;22.20;55.40;;;;;;4945053;29;20821;-85
2023/12/31 10:45:45;;;;;;;4.60;4.30;;;22.20;55.40;;;;;;4930576;29;20535;-84
2023/12/31 10:48:14;;;;;;;4.13;3.83;;;22.20;55.30;;;;;;4934777;29;20466;-90
2023/12/31 10:50:47;;;;;;;4.50;4.20;;;22.20;55.30;;;;;;4934340;29;20475;-84
2023/12/31 10:53:17;;;;;;;4.07;3.77;;;22.20;55.20;;;;;;4922953;29;20984;-85
2023/12/31 10:55:48;;;;;;;5.03;4.63;;;22.20;55.20;;;;;;4921449;29;20559;-86
2023/12/31 10:58:17;;;;;;;4.10;3.83;;;22.20;55.20;;;;;;4933513;29;20860;-85
2023/12/31 11:00:46;;;;;;;4.20;3.50;;;22.20;55.20;;;;;;4927610;29;20464;-85
2023/12/31 11:03:16;;;;;;;4.17;3.87;;;22.30;55.20;;;;;;4941552;29;20478;-84
2023/12/31 11:05:45;;;;;;;4.40;4.10;;;22.30;55.20;;;;;;4934582;29;20475;-84
2023/12/31 11:08:15;;;;;;;4.23;3.93;;;22.30;55.20;;;;;;4936966;29;20468;-86
2023/12/31 11:10:44;;;;;;;3.83;3.53;;;22.30;55.20;;;;;;4931929;29;20474;-84
2023/12/31 11:13:17;;;;;;;4.13;3.83;;;22.40;55.10;;;;;;4939466;29;20944;-85
2023/12/31 11:15:47;;;;;;;4.90;4.50;;;22.40;55.00;;;;;;4934200;29;21008;-89
2023/12/31 11:18:32;;;;;;;4.10;3.80;;;22.50;55.00;;;;;;4930894;29;20460;-84
2023/12/31 11:21:21;;;;;;;4.73;4.03;;;22.50;55.00;;;;;;4929305;29;20471;-87
2023/12/31 11:24:00;;;;;;;3.90;3.60;;;22.60;54.90;;;;;;4948091;29;20484;-84
2023/12/31 11:26:29;;;;;;;3.70;3.50;;;22.70;54.80;;;;;;4934828;29;20449;-83
2023/12/31 11:29:02;;;;;;;4.80;4.40;;;22.80;54.60;;;;;;4929899;29;20500;-84
2023/12/31 11:31:31;;;;;;;3.60;3.40;;;22.80;54.50;;;;;;4921933;29;20464;-89
2023/12/31 11:34:01;;;;;;;4.37;4.07;;;22.80;54.40;;;;;;4932037;29;20471;-84
2023/12/31 11:36:31;;;;;;;4.53;4.13;;;22.80;54.40;;;;;;4930291;29;20474;-86
2023/12/31 11:39:00;;;;;;;4.03;3.60;;;22.80;54.50;;;;;;4930899;29;20464;-84
2023/12/31 11:41:33;;;;;;;4.40;4.00;;;22.80;54.60;;;;;;4931821;29;20495;-87
2023/12/31 11:44:04;;;;;;;4.00;3.70;;;22.80;54.60;;;;;;4928486;29;20514;-86
2023/12/31 11:46:34;;;;;;;3.73;3.50;;;22.90;54.70;;;;;;4930308;29;21065;-84
2023/12/31 11:49:02;;;;;;;3.73;3.43;;;22.90;54.90;;;;;;4930943;29;20520;-84
2023/12/31 11:51:54;;;;;;;4.30;3.90;;;23.00;54.70;;;;;;4939422;29;20481;-88
2023/12/31 11:54:23;;;;;;;3.83;3.53;;;23.00;54.70;;;;;;4933079;29;20456;-84
2023/12/31 11:56:53;;;;;;;3.77;3.57;;;23.10;54.70;;;;;;4918311;29;20477;-87
2023/12/31 11:59:22;;;;;;;4.23;3.93;;;23.10;54.70;;;;;;4928011;29;20467;-86
2023/12/31 12:01:53;;;;;;;3.60;3.30;;;23.20;54.60;;;;;;4921217;29;20465;-87
2023/12/31 12:04:22;;;;;;;3.43;3.23;;;23.20;54.50;;;;;;4926319;29;20480;-85
2023/12/31 12:06:51;;;;;;;4.43;3.77;;;23.30;54.40;;;;;;4931372;29;20465;-85
2023/12/31 12:09:22;;;;;;;3.53;3.33;;;23.30;54.40;;;;;;4931737;29;20461;-87
2023/12/31 12:11:50;;;;;;;4.20;3.90;;;23.40;54.30;;;;;;4931673;29;20522;-87
2023/12/31 12:14:19;;;;;;;6.40;4.03;;;23.50;54.30;;;;;;4922921;29;20467;-85
2023/12/31 12:16:49;;;;;;;4.37;4.00;;;23.50;54.30;;;;;;4934304;29;20441;-87
2023/12/31 12:19:17;;;;;;;4.27;4.00;;;23.40;54.20;;;;;;4935475;29;20524;-88
2023/12/31 12:21:45;;;;;;;5.10;4.10;;;23.40;54.30;;;;;;4935442;29;20448;-86
2023/12/31 12:24:14;;;;;;;4.90;4.33;;;23.30;54.40;;;;;;4916366;29;20567;-86
2023/12/31 12:26:43;;;;;;;8.20;4.97;;;23.20;54.30;;;;;;4934274;29;20476;-85
2023/12/31 12:29:11;;;;;;;5.30;4.30;;;23.10;54.40;;;;;;4932211;29;20479;-86
2023/12/31 12:31:39;;;;;;;6.10;4.50;;;23.00;54.50;;;;;;4927413;29;20472;-85
2023/12/31 12:34:09;;;;;;;4.97;4.47;;;22.90;54.50;;;;;;4935796;29;20469;-87
2023/12/31 12:36:38;;;;;;;5.10;3.97;;;22.90;54.70;;;;;;4928660;29;20461;-85
2023/12/31 12:39:13;;;;;;;5.67;5.17;;;22.80;54.70;;;;;;4927579;29;20484;-89
2023/12/31 12:41:44;;;;;;;6.50;4.27;;;22.70;54.80;;;;;;4936619;29;20512;-88
2023/12/31 12:44:13;;;;;;;5.53;4.60;;;22.60;54.90;;;;;;4932600;29;20453;-87
2023/12/31 12:46:43;;;;;;;5.00;4.53;;;22.60;55.30;;;;;;4935790;29;20475;-89
2023/12/31 12:49:13;;;;;;;4.57;4.27;;;22.50;55.30;;;;;;4935930;29;20470;-88
2023/12/31 12:51:42;;;;;;;4.90;4.50;;;22.50;55.10;;;;;;4918504;29;20449;-87
2023/12/31 12:54:11;;;;;;;5.50;5.00;;;22.50;55.10;;;;;;4931993;29;20515;-86
2023/12/31 12:56:39;;;;;;;6.23;4.80;;;22.40;55.00;;;;;;4923241;29;20522;-85
2023/12/31 12:59:08;;;;;;;4.00;3.67;;;22.40;55.00;;;;;;4930635;29;20471;-85